• Join FlightAware (Why Join?)
  • Login
  • US Flag 
02:13PM EDT


 

Airport Tracker/Info


-or-


 

Live Flight TrackerFlight Track Log ✈ JBU1475 ✈ 08-Jul-2013 ✈ KBOS - KOAK

Flight Track Log - Related Links

Times and Time Zones

All times are in EDT time to prevent confusion due to time zone crossing. See the JBU1475 flight status page for this flight to view local times or setup timezone preferences in your user account.

Time Position Orientation Groundspeed Altitude Reporting Facility
EDT Latitude Longitude Course Direction KTS MPH feet Rate Location/Type
08:21PM 42.3950 -70.9900 22° Northeast 159 183 1,400  Level FlightAware
08:21PM 42.4190 -70.9770 22° Northeast 192 221 1,900 720 Climbing FlightAware
08:21PM 42.4400 -70.9580 34° Northeast 229 264 2,100 600 Climbing FlightAware
08:22PM 42.4460 -70.9390 67° East 243 280 2,300 1,380 Climbing FlightAware
08:22PM 42.4500 -70.9150 77° East 252 290 2,800 2,100 Climbing FlightAware
08:22PM 42.4570 -70.8750 77° East 266 306 3,700 1,800 Climbing FlightAware
08:23PM 42.4520 -70.8260 98° East 283 326 4,500 2,100 Climbing FlightAware
08:23PM 42.4370 -70.8090 140° Southeast 271 312 5,300 2,760 Climbing FlightAware
08:24PM 42.3990 -70.7920 162° South 273 314 6,600 2,460 Climbing FlightAware
08:24PM 42.3670 -70.7780 162° South 290 334 7,600 2,460 Climbing FlightAware
08:25PM 42.3300 -70.7620 162° South 288 331 8,900 2,400 Climbing FlightAware
08:25PM 42.3170 -70.7560 161° South 287 330 9,200 1,920 Climbing FlightAware
08:25PM 42.2590 -70.7550 179° South 289 333 10,700 2,160 Climbing FlightAware
08:26PM 42.2460 -70.7730 226° Southwest 283 326 11,400 2,400 Climbing FlightAware
08:26PM 42.2370 -70.8070 250° West 284 327 12,100 1,800 Climbing FlightAware
08:27PM 42.2350 -70.8730 268° West 292 336 13,200 1,980 Climbing FlightAware
08:27PM 42.2520 -70.9500 287° West 293 337 14,800 2,100 Climbing FlightAware
08:28PM 42.2760 -71.0180 296° West 300 345 16,000 1,560 Climbing FlightAware
08:29PM 42.3060 -71.0830 302° West 314 361 16,900 960 Climbing FlightAware
08:29PM 42.3380 -71.1540 301° West 343 395 17,300 480 Climbing FlightAware
08:30PM 42.3420 -71.1920 278° West 353 406 17,400 480 Climbing FlightAware
08:30PM 42.3320 -71.2850 262° West 374 430 17,800 780 Climbing FlightAware
08:31PM 42.3220 -71.3710 261° West 384 442 18,500 1,140 Climbing FlightAware
08:32PM 42.3100 -71.4790 261° West 390 449 19,400 1,140 Climbing FlightAware
08:33PM 42.2960 -71.5970 261° West 403 464 20,200 1,020 Climbing FlightAware
08:33PM 42.2870 -71.6760 261° West 407 468 20,800 1,320 Climbing FlightAware
08:34PM 42.2660 -71.7840 255° West 400 460 21,900 1,140 Climbing FlightAware
08:34PM 42.2340 -71.8750 245° Southwest 408 470 22,400 660 Climbing FlightAware
08:35PM 42.2040 -71.9570 244° Southwest 416 479 22,800 1,320 Climbing FlightAware
08:36PM 42.1730 -72.0460 245° Southwest 399 459 24,100 1,260 Climbing FlightAware
08:36PM 42.1430 -72.1300 244° Southwest 409 471 24,500 600 Climbing FlightAware
08:37PM 42.1060 -72.2320 244° Southwest 417 480 24,900 540 Climbing FlightAware
08:38PM 42.0540 -72.3760 244° Southwest 437 503 25,400 540 Climbing FlightAware
08:39PM 42.0080 -72.5050 244° Southwest 443 510 26,000 360 Climbing FlightAware
08:40PM 41.9790 -72.5850 244° Southwest 443 510 26,000 900 Level FlightAware
08:40PM 41.9330 -72.6750 236° Southwest 442 509 27,100 780 Climbing FlightAware
08:41PM 41.8780 -72.7630 230° Southwest 442 509 27,100  Level FlightAware
08:42PM 41.8370 -72.8290 230° Southwest 442 509 27,100  Level FlightAware
08:42PM 41.7970 -72.8930 230° Southwest 442 509 27,100 1,140 Level FlightAware
08:43PM 41.7500 -73.0900 252° West 459 528 28,800 1,320 Climbing FlightAware
08:44PM 41.7150 -73.1760 241° Southwest 29,400 960 Climbing FlightAware
08:44PM 41.6620 -73.3020 241° Southwest 454 522 30,200 1,080 Climbing FlightAware
08:45PM 41.6204 -73.3730 232° Southwest 450 518 30,800 1,260 Climbing FlightAware ADS-B
08:45PM 41.5768 -73.4403 229° Southwest 440 506 31,600 1,020 Climbing FlightAware ADS-B
08:46PM 41.5357 -73.5051 230° Southwest 441 507 31,900 360 Climbing FlightAware ADS-B
08:47PM 41.4915 -73.5736 229° Southwest 440 506 32,000 60 Climbing FlightAware ADS-B
08:47PM 41.4509 -73.6359 229° Southwest 437 503 32,000  Level FlightAware ADS-B
08:48PM 41.4071 -73.7024 229° Southwest 436 502 32,000  Level FlightAware ADS-B
08:48PM 41.3614 -73.7719 229° Southwest 434 499 32,000  Level FlightAware ADS-B
08:49PM 41.3211 -73.8327 229° Southwest 435 501 32,000  Level FlightAware ADS-B
08:49PM 41.3200 -73.8344 229° Southwest 435 501 32,000  Level FlightAware ADS-B
08:49PM 41.2798 -73.8935 228° Southwest 437 503 32,000  Level FlightAware ADS-B
08:49PM 41.2759 -73.8992 228° Southwest 437 503 32,000  Level FlightAware ADS-B
08:50PM 41.2313 -73.9648 228° Southwest 438 504 32,000  Level FlightAware ADS-B
08:50PM 41.1889 -74.0272 228° Southwest 441 507 32,000  Level FlightAware ADS-B
08:50PM 41.1755 -74.0467 228° Southwest 441 507 32,000 240 Level FlightAware ADS-B
08:51PM 41.1557 -74.0770 229° Southwest 441 507 32,100 240 Climbing FlightAware ADS-B
08:51PM 41.1476 -74.0900 230° Southwest 441 507 32,100  Level FlightAware ADS-B
08:51PM 41.1309 -74.1195 233° Southwest 442 509 32,100 -180 Level FlightAware ADS-B
08:52PM 41.0970 -74.1898 237° Southwest 443 510 32,000 -120 Descending FlightAware ADS-B
08:52PM 41.0637 -74.2621 239° Southwest 444 511 32,000  Level FlightAware ADS-B
08:53PM 41.0291 -74.3363 238° Southwest 446 513 32,000  Level FlightAware ADS-B
08:53PM 40.9961 -74.4064 238° Southwest 446 513 32,000  Level FlightAware ADS-B
08:54PM 40.9629 -74.4766 238° Southwest 446 513 32,000  Level FlightAware ADS-B
08:54PM 40.9298 -74.5464 238° Southwest 445 512 32,000  Level FlightAware ADS-B
08:55PM 40.8960 -74.6171 238° Southwest 445 512 32,000  Level FlightAware ADS-B
08:55PM 40.8615 -74.6898 238° Southwest 446 513 32,000  Level FlightAware ADS-B
08:56PM 40.8276 -74.7609 238° Southwest 449 517 32,000  Level FlightAware ADS-B
08:56PM 40.7929 -74.8334 238° Southwest 450 518 32,000  Level FlightAware ADS-B
08:57PM 40.7605 -74.9044 239° Southwest 452 520 32,000  Level FlightAware ADS-B
08:57PM 40.7280 -74.9776 240° Southwest 453 521 32,000  Level FlightAware ADS-B
08:58PM 40.6958 -75.0489 239° Southwest 455 524 32,000  Level FlightAware ADS-B
08:58PM 40.6632 -75.1207 239° Southwest 459 528 32,000  Level FlightAware ADS-B
08:59PM 40.6292 -75.1953 239° Southwest 463 533 32,000 180 Level FlightAware ADS-B
08:59PM 40.5954 -75.2692 239° Southwest 466 536 32,200 660 Climbing FlightAware ADS-B
09:00PM 40.5618 -75.3422 239° Southwest 463 533 32,700 960 Climbing FlightAware ADS-B
09:00PM 40.5286 -75.4147 239° Southwest 458 527 33,200 840 Climbing FlightAware ADS-B
09:01PM 40.4956 -75.4866 239° Southwest 457 526 33,600 540 Climbing FlightAware ADS-B
09:01PM 40.4625 -75.5585 239° Southwest 459 528 33,800 360 Climbing FlightAware ADS-B
09:02PM 40.4289 -75.6314 239° Southwest 462 532 34,000 180 Climbing FlightAware ADS-B
09:02PM 40.3942 -75.7060 239° Southwest 468 539 34,000  Level FlightAware ADS-B
09:03PM 40.3597 -75.7801 239° Southwest 475 547 34,000  Level FlightAware ADS-B
09:03PM 40.3250 -75.8547 239° Southwest 481 554 34,000  Level FlightAware ADS-B
09:04PM 40.2886 -75.9329 239° Southwest 487 560 34,000  Level FlightAware ADS-B
09:04PM 40.2528 -76.0097 239° Southwest 493 567 34,000  Level FlightAware ADS-B
09:05PM 40.2217 -76.0759 238° Southwest 500 575 34,000  Level FlightAware ADS-B
09:05PM 40.1846 -76.1546 238° Southwest 500 575 34,000  Level FlightAware ADS-B
09:06PM 40.1462 -76.2360 238° Southwest 497 572 34,000  Level FlightAware ADS-B
09:06PM 40.1088 -76.3148 238° Southwest 493 567 34,000  Level FlightAware ADS-B
09:07PM 40.0713 -76.3961 239° Southwest 491 565 34,000  Level FlightAware ADS-B
09:07PM 40.0356 -76.4739 239° Southwest 491 565 34,000  Level FlightAware ADS-B
09:08PM 39.9962 -76.5593 239° Southwest 491 565 34,000  Level FlightAware ADS-B
09:08PM 39.9603 -76.6366 239° Southwest 492 566 34,000  Level FlightAware ADS-B
09:09PM 39.9247 -76.7129 239° Southwest 491 565 34,000  Level FlightAware ADS-B
09:09PM 39.8883 -76.7908 239° Southwest 490 564 34,000  Level FlightAware ADS-B
09:10PM 39.8520 -76.8686 239° Southwest 488 562 34,000 60 Level FlightAware ADS-B
09:11PM 39.8228 -76.9518 245° Southwest 479 551 34,100  Climbing FlightAware ADS-B
09:11PM 39.7981 -77.0342 249° West 473 544 34,000 -120 Descending FlightAware ADS-B
09:12PM 39.7741 -77.1143 249° West 470 541 34,000  Level FlightAware ADS-B
09:12PM 39.7503 -77.1934 249° West 467 537 34,000  Level FlightAware ADS-B
09:13PM 39.7239 -77.2811 249° West 466 536 34,000  Level FlightAware ADS-B
09:13PM 39.6908 -77.3902 249° West 468 539 34,000  Level FlightAware ADS-B
09:14PM 39.6656 -77.4732 248° West 467 537 34,000  Level FlightAware ADS-B
09:14PM 39.6420 -77.5530 249° West 466 536 34,000  Level FlightAware
09:15PM 39.6177 -77.6312 248° West 467 537 34,000  Level FlightAware ADS-B
09:15PM 39.5883 -77.7263 248° West 464 534 34,000  Level FlightAware ADS-B
09:16PM 39.5616 -77.8126 248° West 461 531 34,000  Level FlightAware ADS-B
09:17PM 39.5371 -77.8917 248° West 460 529 34,000  Level FlightAware ADS-B
09:17PM 39.5113 -77.9752 248° West 459 528 34,000  Level FlightAware ADS-B
09:18PM 39.4869 -78.0537 248° West 459 528 34,000  Level FlightAware ADS-B
09:18PM 39.4626 -78.1320 248° West 459 528 34,000  Level FlightAware ADS-B
09:19PM 39.4387 -78.2083 248° West 458 527 34,000  Level FlightAware ADS-B
09:20PM 39.3860 -78.3760 248° West 461 531 34,000  Level FlightAware
09:20PM 39.3510 -78.4880 248° West 463 533 34,000  Level FlightAware
09:21PM 39.3210 -78.5820 248° West 464 534 34,000  Level FlightAware
09:22PM 39.2900 -78.6790 248° West 464 534 34,000  Level FlightAware
09:22PM 39.2540 -78.7910 247° West 464 534 34,000  Level FlightAware
09:23PM 39.2220 -78.8940 248° West 464 534 34,000  Level FlightAware
09:24PM 39.1860 -79.0040 247° West 462 532 34,000  Level FlightAware
09:25PM 39.1500 -79.1160 248° West 462 532 34,000  Level FlightAware
09:25PM 39.1170 -79.2190 248° West 460 529 34,000  Level FlightAware
09:26PM 39.0800 -79.3330 247° West 461 531 34,000  Level FlightAware
09:27PM 39.0470 -79.4330 247° West 461 531 34,000  Level FlightAware
09:27PM 39.0110 -79.5440 247° West 460 529 34,000  Level FlightAware
09:28PM 38.9760 -79.6480 247° West 458 527 34,000  Level FlightAware
09:29PM 38.9460 -79.7400 247° West 458 527 34,000  Level FlightAware
09:29PM 38.9090 -79.8520 247° West 459 528 34,000  Level FlightAware
09:30PM 38.8720 -79.9630 247° West 459 528 34,000  Level FlightAware
09:31PM 38.8410 -80.0680 249° West 457 526 34,000  Level FlightAware
09:32PM 38.8220 -80.1700 257° West 453 521 34,000  Level FlightAware
09:32PM 38.8160 -80.2810 266° West 450 518 34,000  Level FlightAware
09:33PM 38.8120 -80.4020 268° West 449 517 34,000  Level FlightAware
09:34PM 38.8090 -80.5100 268° West 449 517 34,000  Level FlightAware
09:34PM 38.8060 -80.6140 268° West 448 516 34,000  Level FlightAware
09:35PM 38.8020 -80.7270 267° West 448 516 34,000  Level FlightAware
09:36PM 38.7990 -80.8420 268° West 450 518 34,000  Level FlightAware
09:36PM 38.7950 -80.9580 268° West 450 518 34,000  Level FlightAware
09:37PM 38.7910 -81.0710 267° West 451 519 34,000  Level FlightAware
09:38PM 38.7870 -81.1750 267° West 452 520 34,000  Level FlightAware
09:39PM 38.7830 -81.2970 268° West 453 521 34,000  Level FlightAware
09:39PM 38.7790 -81.4070 267° West 454 522 34,000  Level FlightAware
09:40PM 38.7750 -81.5170 267° West 455 524 34,000  Level FlightAware
09:41PM 38.7710 -81.6260 267° West 456 525 34,000  Level FlightAware
09:41PM 38.7660 -81.7390 267° West 456 525 34,000 60 Level FlightAware
09:42PM 38.7610 -81.8580 267° West 454 522 34,100  Climbing FlightAware
09:43PM 38.7570 -81.9650 267° West 452 520 34,000 -120 Descending FlightAware
09:43PM 38.7520 -82.0750 267° West 451 519 34,000  Level FlightAware
09:44PM 38.7480 -82.1950 268° West 452 520 34,000  Level FlightAware
09:45PM 38.7440 -82.3030 267° West 452 520 34,000  Level FlightAware
09:46PM 38.7400 -82.4170 267° West 453 521 34,000  Level FlightAware
09:46PM 38.7350 -82.5300 267° West 453 521 34,000  Level FlightAware
09:47PM 38.7310 -82.6280 267° West 453 521 34,000  Level FlightAware
09:47PM 38.7270 -82.7270 267° West 453 521 34,000  Level FlightAware
09:48PM 38.7230 -82.8230 267° West 452 520 34,000  Level FlightAware
09:49PM 38.7170 -82.9580 267° West 452 520 34,000  Level FlightAware
09:49PM 38.7130 -83.0390 266° West 452 520 34,000  Level FlightAware
09:50PM 38.7080 -83.1630 267° West 452 520 34,000  Level FlightAware
09:51PM 38.7030 -83.2590 266° West 453 521 34,000  Level FlightAware
09:52PM 38.6980 -83.3660 267° West 453 521 34,000  Level FlightAware
09:52PM 38.6920 -83.5010 267° West 453 521 34,000  Level FlightAware
09:53PM 38.6870 -83.6050 267° West 453 521 34,000  Level FlightAware
09:54PM 38.6810 -83.7170 266° West 453 521 34,000  Level FlightAware
09:54PM 38.6760 -83.8200 266° West 450 518 34,000  Level FlightAware
09:55PM 38.6680 -83.9680 266° West 450 518 34,000  Level FlightAware
09:56PM 38.6620 -84.0750 266° West 450 518 34,000  Level FlightAware
09:56PM 38.6580 -84.1510 266° West 450 518 34,000  Level FlightAware
09:57PM 38.6530 -84.2550 267° West 450 518 34,000  Level FlightAware
09:58PM 38.6540 -84.3780 271° West 34,000  Level FlightAware
09:58PM 38.6580 -84.4500 274° West 449 517 34,000  Level FlightAware
09:59PM 38.6660 -84.5930 274° West 449 517 34,000  Level FlightAware
10:01PM 38.6770 -84.7770 274° West 443 510 34,000  Level FlightAware
10:01PM 38.6850 -84.9230 274° West 444 511 34,000  Level FlightAware
10:02PM 38.6910 -85.0240 274° West 445 512 34,000  Level FlightAware
10:03PM 38.6970 -85.1440 274° West 445 512 34,000  Level FlightAware
10:03PM 38.7030 -85.2490 274° West 445 512 34,000  Level FlightAware
10:04PM 38.7090 -85.3660 274° West 443 510 34,000  Level FlightAware
10:05PM 38.7140 -85.4680 274° West 442 509 34,000  Level FlightAware
10:05PM 38.7200 -85.5870 274° West 441 507 34,000  Level FlightAware
10:06PM 38.7240 -85.6630 274° West 441 507 34,000  Level FlightAware
10:07PM 38.7290 -85.7780 273° West 441 507 34,000  Level FlightAware
10:07PM 38.7350 -85.8900 274° West 443 510 34,000  Level FlightAware
10:08PM 38.7400 -85.9970 273° West 444 511 34,000  Level FlightAware
10:09PM 38.7450 -86.1060 273° West 445 512 34,000  Level FlightAware
10:10PM 38.7500 -86.2250 273° West 447 514 34,000  Level FlightAware
10:10PM 38.7550 -86.3300 274° West 446 513 34,000  Level FlightAware
10:11PM 38.7580 -86.4170 273° West 445 512 34,000  Level FlightAware
10:12PM 38.7630 -86.5290 273° West 445 512 34,000  Level FlightAware
10:12PM 38.7680 -86.6390 273° West 448 516 34,000  Level FlightAware
10:13PM 38.7720 -86.7490 273° West 448 516 34,000  Level FlightAware
10:13PM 38.7760 -86.8470 273° West 449 517 34,000  Level FlightAware
10:14PM 38.7800 -86.9640 273° West 447 514 34,000  Level FlightAware
10:15PM 38.7850 -87.0810 273° West 444 511 34,000  Level FlightAware
10:16PM 38.7910 -87.2440 273° West 443 510 34,000  Level FlightAware
10:17PM 38.7950 -87.3540 273° West 443 510 34,000  Level FlightAware
10:17PM 38.7980 -87.4430 273° West 444 511 34,000  Level FlightAware
10:18PM 38.8010 -87.5500 272° West 445 512 34,000  Level FlightAware
10:19PM 38.8050 -87.6690 273° West 445 512 34,000  Level FlightAware
10:19PM 38.8080 -87.7730 272° West 446 513 34,000  Level FlightAware
10:20PM 38.8120 -87.8870 273° West 447 514 34,000  Level FlightAware
10:21PM 38.8150 -87.9920 272° West 446 513 34,000  Level FlightAware
10:21PM 38.8180 -88.1100 272° West 445 512 34,000  Level FlightAware
10:22PM 38.8210 -88.2010 272° West 444 511 34,000  Level FlightAware
10:23PM 38.8230 -88.3040 271° West 444 511 34,000  Level FlightAware
10:23PM 38.8260 -88.4180 272° West 442 509 34,000  Level FlightAware
10:24PM 38.8290 -88.5110 272° West 442 509 34,000  Level FlightAware
10:25PM 38.8310 -88.6160 271° West 442 509 34,000  Level FlightAware
10:25PM 38.8330 -88.7100 272° West 443 510 34,000  Level FlightAware
10:26PM 38.8360 -88.8360 272° West 442 509 34,000  Level FlightAware
10:27PM 38.8390 -88.9490 272° West 441 507 34,000  Level FlightAware
10:28PM 38.8410 -89.0550 271° West 440 506 34,000  Level FlightAware
10:28PM 38.8430 -89.1630 271° West 439 505 34,000  Level FlightAware
10:29PM 38.8450 -89.2650 271° West 439 505 34,000  Level FlightAware
10:29PM 38.8460 -89.3520 271° West 440 506 34,000  Level FlightAware
10:30PM 38.8490 -89.4800 272° West 443 510 34,000  Level FlightAware
10:31PM 38.8500 -89.5790 271° West 445 512 34,000  Level FlightAware
10:31PM 38.8520 -89.6730 272° West 446 513 34,000  Level FlightAware
10:32PM 38.8530 -89.7940 271° West 446 513 34,000  Level FlightAware
10:33PM 38.8540 -89.8850 271° West 445 512 34,000  Level FlightAware
10:34PM 38.8560 -90.0020 271° West 443 510 34,000  Level FlightAware
10:34PM 38.8570 -90.1250 271° West 440 506 34,000  Level FlightAware
10:35PM 38.8580 -90.2210 271° West 439 505 34,000  Level FlightAware
10:36PM 38.8590 -90.3380 271° West 439 505 34,000  Level FlightAware
10:36PM 38.8600 -90.4280 271° West 440 506 34,000  Level FlightAware
10:37PM 38.8540 -90.5330 266° West 441 507 34,000  Level FlightAware
10:38PM 38.8390 -90.6490 261° West 443 510 34,000  Level FlightAware
10:38PM 38.8290 -90.7310 261° West 443 510 34,000  Level FlightAware
10:39PM 38.8130 -90.8470 260° West 442 509 34,000  Level FlightAware
10:40PM 38.7990 -90.9520 260° West 443 510 34,000  Level FlightAware
10:40PM 38.7850 -91.0600 261° West 443 510 34,000  Level FlightAware
10:41PM 38.7700 -91.1710 260° West 441 507 34,000  Level FlightAware
10:42PM 38.7580 -91.2620 260° West 442 509 34,000  Level FlightAware
10:42PM 38.7430 -91.3750 260° West 442 509 34,000  Level FlightAware
10:43PM 38.7310 -91.4560 259° West 442 509 34,000  Level FlightAware
10:44PM 38.7130 -91.5920 260° West 442 509 34,000  Level FlightAware
10:45PM 38.7010 -91.6740 259° West 442 509 34,000  Level FlightAware
10:45PM 38.6910 -91.7530 261° West 442 509 34,000  Level FlightAware
10:46PM 38.6790 -91.8340 259° West 442 509 34,000  Level FlightAware
10:47PM 38.6650 -91.9390 260° West 442 509 34,000  Level FlightAware
10:47PM 38.6540 -92.0200 260° West 442 509 34,000  Level FlightAware
10:48PM 38.6390 -92.1250 260° West 442 509 34,000  Level FlightAware
10:49PM 38.6050 -92.3450 259° West 440 506 34,000  Level FlightAware
10:49PM 38.5920 -92.4300 259° West 440 506 34,000  Level FlightAware
10:50PM 38.5730 -92.5640 260° West 441 507 34,000  Level FlightAware
10:51PM 38.5560 -92.6810 260° West 440 506 34,000  Level FlightAware
10:52PM 38.5390 -92.7920 259° West 441 507 34,000  Level FlightAware
10:52PM 38.5230 -92.8970 259° West 443 510 34,000  Level FlightAware
10:53PM 38.5060 -93.0100 259° West 442 509 34,000  Level FlightAware
10:54PM 38.4910 -93.1130 259° West 443 510 34,000  Level FlightAware
10:54PM 38.4740 -93.2220 259° West 443 510 34,000  Level FlightAware
10:55PM 38.4580 -93.3240 259° West 443 510 34,000  Level FlightAware
10:56PM 38.4400 -93.4380 259° West 443 510 34,000  Level FlightAware
10:56PM 38.4260 -93.5320 259° West 442 509 34,000  Level FlightAware
10:57PM 38.4100 -93.6350 259° West 442 509 34,000  Level FlightAware
10:58PM 38.3930 -93.7400 258° West 443 510 34,000  Level FlightAware
10:58PM 38.3830 -93.8440 263° West 445 512 34,000  Level FlightAware
10:59PM 38.3920 -93.9400 277° West 444 511 34,000  Level FlightAware
11:00PM 38.3979 -94.0100 276° West 34,000  Level FlightAware ADS-B
11:00PM 38.3987 -94.0187 277° West 444 511 34,000  Level FlightAware ADS-B
11:00PM 38.4056 -94.0998 276° West 441 507 34,000  Level FlightAware ADS-B
11:01PM 38.4115 -94.1770 276° West 440 506 34,000  Level FlightAware ADS-B
11:01PM 38.4184 -94.2672 276° West 439 505 34,000  Level FlightAware ADS-B
11:02PM 38.4245 -94.3459 276° West 440 506 34,000  Level FlightAware ADS-B
11:02PM 38.4306 -94.4237 276° West 440 506 34,000  Level FlightAware ADS-B
11:03PM 38.4366 -94.5022 276° West 440 506 34,000  Level FlightAware ADS-B
11:03PM 38.4424 -94.5795 275° West 439 505 34,000  Level FlightAware ADS-B
11:04PM 38.4484 -94.6573 276° West 437 503 34,000  Level FlightAware ADS-B
11:04PM 38.4542 -94.7347 275° West 436 502 34,000  Level FlightAware ADS-B
11:05PM 38.4603 -94.8181 275° West 436 502 34,000  Level FlightAware ADS-B
11:05PM 38.4670 -94.9140 275° West 435 501 34,000  Level FlightAware
11:06PM 38.4750 -95.0150 276° West 436 502 34,000  Level FlightAware
11:07PM 38.4820 -95.1250 275° West 438 504 34,000  Level FlightAware
11:07PM 38.4900 -95.2280 276° West 440 506 34,000  Level FlightAware
11:08PM 38.4960 -95.3260 275° West 442 509 34,000  Level FlightAware
11:09PM 38.5030 -95.4200 275° West 443 510 34,000  Level FlightAware
11:09PM 38.5070 -95.4821 275° West 444 511 34,000  Level FlightAware ADS-B
11:10PM 38.5125 -95.5631 275° West 445 512 34,000 360 Level FlightAware ADS-B
11:10PM 38.5195 -95.6691 275° West 443 510 34,500 720 Climbing FlightAware ADS-B
11:11PM 38.5249 -95.7503 275° West 442 509 34,900 780 Climbing FlightAware ADS-B
11:11PM 38.5300 -95.8276 275° West 440 506 35,300 660 Climbing FlightAware ADS-B
11:12PM 38.5352 -95.9064 275° West 440 506 35,600 540 Climbing FlightAware ADS-B
11:12PM 38.5420 -96.0140 275° West 434 499 36,000 360 Climbing FlightAware
11:13PM 38.5459 -96.0731 275° West 437 503 36,000  Level FlightAware ADS-B
11:13PM 38.5512 -96.1599 274° West 435 501 36,000  Level FlightAware ADS-B
11:14PM 38.5598 -96.3026 274° West 437 503 36,000  Level FlightAware ADS-B
11:15PM 38.5644 -96.3810 274° West 439 505 36,000  Level FlightAware ADS-B
11:16PM 38.5704 -96.4822 274° West 441 507 36,000  Level FlightAware ADS-B
11:16PM 38.5758 -96.5739 274° West 442 509 36,000  Level FlightAware ADS-B
11:17PM 38.5833 -96.7026 274° West 444 511 36,000  Level FlightAware ADS-B
11:17PM 38.5879 -96.7834 274° West 444 511 36,000  Level FlightAware ADS-B
11:18PM 38.5951 -96.9112 274° West 443 510 36,000  Level FlightAware ADS-B
11:19PM 38.5995 -96.9908 274° West 444 511 36,000  Level FlightAware ADS-B
11:19PM 38.6041 -97.0778 274° West 444 511 36,000  Level FlightAware ADS-B
11:20PM 38.6090 -97.1700 274° West 444 511 36,000  Level FlightAware
11:20PM 38.6104 -97.1962 274° West 444 511 36,000  Level FlightAware ADS-B
11:21PM 38.6146 -97.2748 274° West 444 511 36,000  Level FlightAware ADS-B
11:21PM 38.6187 -97.3547 274° West 444 511 36,000  Level FlightAware ADS-B
11:22PM 38.6228 -97.4337 274° West 444 511 36,000  Level FlightAware ADS-B
11:22PM 38.6268 -97.5130 274° West 445 512 36,000  Level FlightAware ADS-B
11:23PM 38.6309 -97.5958 274° West 445 512 36,000  Level FlightAware ADS-B
11:23PM 38.6348 -97.6750 274° West 445 512 36,000  Level FlightAware ADS-B
11:24PM 38.6387 -97.7543 274° West 445 512 36,000  Level FlightAware ADS-B
11:24PM 38.6425 -97.8328 274° West 445 512 36,000  Level FlightAware ADS-B
11:25PM 38.6462 -97.9115 273° West 445 512 36,000  Level FlightAware ADS-B
11:25PM 38.6499 -97.9932 273° West 445 512 36,000  Level FlightAware ADS-B
11:26PM 38.6535 -98.0724 273° West 444 511 36,000  Level FlightAware ADS-B
11:26PM 38.6571 -98.1526 273° West 443 510 36,000  Level FlightAware ADS-B
11:27PM 38.6607 -98.2320 273° West 441 507 36,000  Level FlightAware ADS-B
11:27PM 38.6641 -98.3129 273° West 439 505 36,000  Level FlightAware ADS-B
11:28PM 38.6676 -98.3943 273° West 439 505 36,000  Level FlightAware ADS-B
11:30PM 38.6780 -98.6440 273° West 437 503 36,000  Level FlightAware
11:30PM 38.6810 -98.7230 273° West 437 503 36,000  Level FlightAware
11:31PM 38.6850 -98.8070 274° West 437 503 36,000  Level FlightAware
11:32PM 38.6890 -98.9130 273° West 437 503 36,000  Level FlightAware
11:32PM 38.6920 -98.9920 273° West 437 503 36,000  Level FlightAware
11:33PM 38.6960 -99.0950 273° West 437 503 36,000  Level FlightAware
11:34PM 38.7030 -99.2530 273° West 437 503 36,000  Level FlightAware
11:35PM 38.7070 -99.3590 273° West 437 503 36,000  Level FlightAware
11:36PM 38.7130 -99.4930 273° West 437 503 36,000  Level FlightAware
11:37PM 38.7170 -99.5990 273° West 437 503 36,000  Level FlightAware
11:37PM 38.7200 -99.6780 273° West 437 503 36,000  Level FlightAware
11:38PM 38.7230 -99.7570 273° West 437 503 36,000  Level FlightAware
11:39PM 38.7258 -100.0369 273° West 424 488 36,000  Level Denver Center
11:40PM 38.7300 -100.2058 272° West 427 491 36,000  Level Denver Center
11:41PM 38.7342 -100.3517 272° West 431 496 36,000  Level Denver Center
11:42PM 38.7386 -100.5256 272° West 438 504 36,100  Climbing Denver Center
11:43PM 38.7394 -100.6767 270° West 443 510 36,100  Level Denver Center
11:48PM 38.6624 -101.5320 270° West 438 504 36,100  Level FlightAware ADS-B
11:49PM 38.6633 -101.6100 271° West 436 502 36,100 -120 Level FlightAware ADS-B
11:49PM 38.6662 -101.6880 273° West 433 498 36,000 -120 Descending FlightAware ADS-B
11:50PM 38.6684 -101.7650 272° West 433 498 36,000  Level FlightAware ADS-B
11:50PM 38.6701 -101.8420 272° West 434 499 36,000  Level FlightAware ADS-B
11:51PM 38.6716 -101.9210 271° West 435 501 36,000  Level FlightAware ADS-B
11:51PM 38.6732 -101.9990 272° West 436 502 36,000  Level FlightAware ADS-B
11:52PM 38.6747 -102.0780 271° West 437 503 36,000  Level FlightAware ADS-B
11:52PM 38.6761 -102.1560 271° West 438 504 36,000  Level FlightAware ADS-B
11:53PM 38.6774 -102.2350 271° West 439 505 36,000  Level FlightAware ADS-B
11:53PM 38.6787 -102.3130 271° West 439 505 36,000 60 Level FlightAware ADS-B
11:54PM 38.6800 -102.3930 271° West 437 503 36,100 60 Climbing FlightAware ADS-B
11:54PM 38.6812 -102.4760 271° West 434 499 36,100 -120 Level FlightAware ADS-B
11:55PM 38.6824 -102.5520 271° West 432 497 36,000 -120 Descending FlightAware ADS-B
11:55PM 38.6835 -102.6290 271° West 431 496 36,000  Level FlightAware ADS-B
11:56PM 38.6846 -102.7120 271° West 432 497 36,000  Level FlightAware ADS-B
11:56PM 38.6856 -102.7920 271° West 433 498 36,000  Level FlightAware ADS-B
11:57PM 38.6864 -102.8690 271° West 434 499 36,000  Level FlightAware ADS-B
11:57PM 38.6873 -102.9470 271° West 434 499 36,000  Level FlightAware ADS-B
11:58PM 38.6881 -103.0240 271° West 435 501 36,000  Level FlightAware ADS-B
11:58PM 38.6888 -103.1030 271° West 434 499 36,000  Level FlightAware ADS-B
11:59PM 38.6895 -103.1810 271° West 433 498 36,000  Level FlightAware ADS-B
11:59PM 38.6902 -103.2590 271° West 434 499 36,000  Level FlightAware ADS-B
12:00AM 38.6908 -103.3360 271° West 433 498 36,000  Level FlightAware ADS-B
12:00AM 38.6915 -103.4140 271° West 433 498 36,000  Level FlightAware ADS-B
12:01AM 38.6922 -103.4910 271° West 434 499 36,000  Level FlightAware ADS-B
12:01AM 38.6927 -103.5700 270° West 436 502 36,000  Level FlightAware ADS-B
12:02AM 38.6930 -103.6480 270° West 436 502 36,000  Level FlightAware ADS-B
12:02AM 38.6934 -103.7270 270° West 437 503 36,000  Level FlightAware ADS-B
12:03AM 38.6936 -103.8060 270° West 438 504 36,000  Level FlightAware ADS-B
12:03AM 38.6938 -103.8840 270° West 436 502 36,000 60 Level FlightAware ADS-B
12:04AM 38.6941 -103.9620 270° West 433 498 36,100  Climbing FlightAware ADS-B
12:04AM 38.6942 -104.0410 270° West 432 497 36,000 -120 Descending FlightAware ADS-B
12:05AM 38.6943 -104.1180 270° West 429 494 36,000  Level FlightAware ADS-B
12:05AM 38.6943 -104.1950 270° West 428 493 36,000  Level FlightAware ADS-B
12:06AM 38.6943 -104.2710 270° West 429 494 36,000  Level FlightAware ADS-B
12:06AM 38.6943 -104.3470 270° West 431 496 36,000  Level FlightAware ADS-B
12:07AM 38.6941 -104.4400 270° West 432 497 36,000  Level FlightAware ADS-B
12:08AM 38.6939 -104.5160 270° West 431 496 36,000  Level FlightAware ADS-B
12:08AM 38.6937 -104.6090 270° West 431 496 36,000  Level FlightAware ADS-B
12:09AM 38.6934 -104.6890 270° West 431 496 36,000  Level FlightAware ADS-B
12:09AM 38.6931 -104.7660 270° West 429 494 36,000  Level FlightAware ADS-B
12:10AM 38.6927 -104.8450 270° West 427 491 36,000  Level FlightAware ADS-B
12:10AM 38.6922 -104.9210 270° West 428 493 36,000  Level FlightAware ADS-B
12:11AM 38.6918 -104.9980 270° West 426 490 36,000  Level FlightAware ADS-B
12:11AM 38.6913 -105.0740 270° West 426 490 36,000  Level FlightAware ADS-B
12:12AM 38.6907 -105.1510 269° West 426 490 36,000  Level FlightAware ADS-B
12:12AM 38.6901 -105.2260 269° West 426 490 36,000  Level FlightAware ADS-B
12:13AM 38.6894 -105.3020 269° West 426 490 36,000  Level FlightAware ADS-B
12:13AM 38.6886 -105.3790 269° West 425 489 36,000  Level FlightAware ADS-B
12:14AM 38.6878 -105.4550 269° West 427 491 36,000  Level FlightAware ADS-B
12:14AM 38.6870 -105.5300 269° West 426 490 36,000  Level FlightAware ADS-B
12:15AM 38.6861 -105.6060 269° West 426 490 36,000  Level FlightAware ADS-B
12:15AM 38.6852 -105.6830 269° West 423 487 36,000  Level FlightAware ADS-B
12:16AM 38.6842 -105.7580 269° West 423 487 36,000  Level FlightAware ADS-B
12:16AM 38.6830 -105.8510 269° West 420 483 36,000  Level FlightAware ADS-B
12:17AM 38.6818 -105.9300 269° West 419 482 36,000  Level FlightAware ADS-B
12:17AM 38.6807 -106.0090 269° West 421 484 36,000  Level FlightAware ADS-B
12:18AM 38.6795 -106.0850 269° West 421 484 36,000  Level FlightAware ADS-B
12:19AM 38.6783 -106.1600 269° West 421 484 36,000  Level FlightAware ADS-B
12:19AM 38.6768 -106.2540 269° West 419 482 36,000  Level FlightAware ADS-B
12:20AM 38.6750 -106.3550 269° West 419 482 36,000  Level FlightAware ADS-B
12:20AM 38.6734 -106.4390 269° West 419 482 36,000  Level FlightAware ADS-B
12:21AM 38.6718 -106.5140 268° West 419 482 36,000  Level FlightAware ADS-B
12:21AM 38.6703 -106.5890 269° West 417 480 36,000  Level FlightAware ADS-B
12:22AM 38.6683 -106.6890 269° West 418 481 36,000  Level FlightAware ADS-B
12:23AM 38.6666 -106.7650 268° West 418 481 36,000  Level FlightAware ADS-B
12:23AM 38.6647 -106.8510 268° West 418 481 36,000  Level FlightAware ADS-B
12:24AM 38.6630 -106.9270 268° West 420 483 36,000  Level FlightAware ADS-B
12:25AM 38.6598 -107.0620 268° West 421 484 36,000  Level FlightAware ADS-B
12:25AM 38.6574 -107.1570 268° West 421 484 36,000  Level FlightAware ADS-B
12:26AM 38.6554 -107.2370 268° West 421 484 36,000  Level FlightAware ADS-B
12:26AM 38.6535 -107.3110 268° West 421 484 36,000  Level FlightAware ADS-B
12:27AM 38.6515 -107.3860 268° West 419 482 36,000  Level FlightAware ADS-B
12:27AM 38.6494 -107.4610 268° West 418 481 36,000  Level FlightAware ADS-B
12:28AM 38.6450 -107.6090 268° West 415 478 36,000  Level FlightAware
12:29AM 38.6420 -107.7140 268° West 417 480 36,000  Level FlightAware
12:30AM 38.6390 -107.8160 268° West 417 480 36,000  Level FlightAware
12:30AM 38.6360 -107.9040 268° West 417 480 36,000  Level FlightAware
12:31AM 38.6330 -108.0130 268° West 418 481 36,000  Level FlightAware
12:32AM 38.6300 -108.1130 268° West 417 480 36,000  Level FlightAware
12:32AM 38.6270 -108.2020 268° West 417 480 36,000  Level FlightAware
12:33AM 38.6230 -108.2960 267° West 416 479 36,000  Level FlightAware
12:34AM 38.6190 -108.4050 267° West 415 478 36,000  Level FlightAware
12:34AM 38.6160 -108.5020 268° West 416 479 36,000  Level FlightAware
12:35AM 38.6120 -108.6060 267° West 416 479 36,000  Level FlightAware
12:36AM 38.6080 -108.7050 267° West 416 479 36,000  Level FlightAware
12:36AM 38.6040 -108.8180 267° West 415 478 36,000  Level FlightAware
12:37AM 38.6000 -108.9070 267° West 417 480 36,000  Level FlightAware
12:38AM 38.5960 -109.0040 267° West 420 483 36,000  Level FlightAware
12:38AM 38.5920 -109.1060 267° West 420 483 36,000 60 Level FlightAware
12:39AM 38.5890 -109.1900 267° West 417 480 36,100  Climbing FlightAware
12:40AM 38.5840 -109.2950 267° West 415 478 36,000 -120 Descending FlightAware
12:40AM 38.5800 -109.3960 267° West 415 478 36,000  Level FlightAware
12:41AM 38.5750 -109.5010 267° West 418 481 36,000  Level FlightAware
12:42AM 38.5700 -109.6060 267° West 419 482 36,000  Level FlightAware
12:43AM 38.5660 -109.7050 267° West 421 484 36,000  Level FlightAware
12:43AM 38.5600 -109.8130 266° West 422 486 36,000 60 Level FlightAware
12:44AM 38.5560 -109.9140 267° West 420 483 36,100  Climbing FlightAware
12:44AM 38.5510 -109.9980 266° West 418 481 36,000 -120 Descending FlightAware
12:45AM 38.5460 -110.1140 267° West 417 480 36,000  Level FlightAware
12:46AM 38.5410 -110.2100 266° West 416 479 36,000  Level FlightAware
12:47AM 38.5350 -110.3190 266° West 417 480 36,000  Level FlightAware
12:47AM 38.5300 -110.4180 266° West 417 480 36,000  Level FlightAware
12:48AM 38.5240 -110.5200 266° West 417 480 36,000  Level FlightAware
12:49AM 38.5190 -110.6250 267° West 417 480 36,000  Level FlightAware
12:49AM 38.5130 -110.7310 266° West 419 482 36,000  Level FlightAware
12:50AM 38.5070 -110.8310 266° West 419 482 36,000  Level FlightAware
12:51AM 38.5010 -110.9330 266° West 419 482 36,000  Level FlightAware
12:51AM 38.4970 -111.0320 267° West 419 482 36,000  Level FlightAware
12:52AM 38.4980 -111.1410 271° West 419 482 36,000  Level FlightAware
12:53AM 38.4984 -111.2440 270° West 418 481 36,000  Level FlightAware ADS-B
12:54AM 38.4981 -111.3540 270° West 418 481 36,000  Level FlightAware ADS-B
12:54AM 38.4978 -111.4370 270° West 417 480 36,000  Level FlightAware ADS-B
12:55AM 38.4974 -111.5190 270° West 418 481 36,000  Level FlightAware ADS-B
12:55AM 38.4971 -111.6030 270° West 421 484 36,000  Level FlightAware ADS-B
12:56AM 38.4966 -111.6780 270° West 420 483 36,000  Level FlightAware ADS-B
12:56AM 38.4961 -111.7570 270° West 421 484 36,000  Level FlightAware ADS-B
12:57AM 38.4953 -111.8650 269° West 421 484 36,000  Level FlightAware ADS-B
12:58AM 38.4947 -111.9420 269° West 421 484 36,000  Level FlightAware ADS-B
12:58AM 38.4941 -112.0180 269° West 420 483 36,000  Level FlightAware ADS-B
12:59AM 38.4931 -112.1200 269° West 420 483 36,000  Level FlightAware ADS-B
12:59AM 38.4920 -112.1770 269° West 420 483 36,000  Level FlightAware
01:00AM 38.4919 -112.2340 270° West 420 483 36,000  Level FlightAware ADS-B
01:00AM 38.4910 -112.3110 269° West 419 482 36,000  Level FlightAware ADS-B
01:01AM 38.4899 -112.4110 269° West 419 482 36,000  Level FlightAware ADS-B
01:01AM 38.4889 -112.4850 269° West 416 479 36,000  Level FlightAware ADS-B
01:02AM 38.4878 -112.5630 269° West 416 479 36,000  Level FlightAware ADS-B
01:03AM 38.4862 -112.6830 269° West 416 479 36,000  Level FlightAware ADS-B
01:03AM 38.4849 -112.7660 269° West 415 478 36,000  Level FlightAware ADS-B
01:04AM 38.4835 -112.8590 269° West 415 478 36,000  Level FlightAware ADS-B
01:04AM 38.4823 -112.9340 269° West 414 476 36,000  Level FlightAware ADS-B
01:05AM 38.4814 -113.0389 269° West 413 475 36,000  Level Salt Lake Center
01:06AM 38.4789 -113.1836 269° West 413 475 36,000  Level Salt Lake Center
01:07AM 38.4756 -113.3289 268° West 412 474 36,000  Level Salt Lake Center
01:08AM 38.4722 -113.4739 268° West 413 475 36,000  Level Salt Lake Center
01:09AM 38.4692 -113.6192 269° West 413 475 36,000  Level Salt Lake Center
01:10AM 38.4661 -113.7642 269° West 411 473 36,000  Level Salt Lake Center
01:11AM 38.4633 -113.9106 269° West 414 476 36,000  Level Salt Lake Center
01:12AM 38.4586 -114.0583 268° West 418 481 36,000  Level Salt Lake Center
01:17AM 38.4350 -114.8390 268° West 413 475 36,000  Level FlightAware
01:18AM 38.4310 -114.9180 266° West 413 475 36,000  Level FlightAware
01:19AM 38.4280 -114.9980 267° West 413 475 36,000  Level FlightAware
01:19AM 38.4240 -115.0940 267° West 413 475 36,000  Level FlightAware
01:20AM 38.4210 -115.1700 267° West 413 475 36,000  Level FlightAware
01:21AM 38.4180 -115.2450 267° West 413 475 36,000  Level FlightAware
01:21AM 38.4140 -115.3420 267° West 413 475 36,000  Level FlightAware
01:22AM 38.4110 -115.4170 267° West 413 475 36,000  Level FlightAware
01:23AM 38.4080 -115.4950 267° West 413 475 36,000  Level FlightAware
01:23AM 38.4040 -115.5930 267° West 413 475 36,000  Level FlightAware
01:24AM 38.4010 -115.6710 267° West 413 475 36,000  Level FlightAware
01:25AM 38.3970 -115.7680 267° West 413 475 36,000  Level FlightAware
01:25AM 38.3930 -115.8430 266° West 413 475 36,000  Level FlightAware
01:26AM 38.3900 -115.9170 267° West 413 475 36,000  Level FlightAware
01:27AM 38.3860 -116.0210 267° West 413 475 36,000  Level FlightAware
01:28AM 38.3550 -116.2775 267° West 410 472 36,000  Level Salt Lake Center
01:29AM 38.3419 -116.4236 264° West 415 478 36,000  Level Salt Lake Center
01:30AM 38.3256 -116.5978 263° West 414 476 36,000  Level Salt Lake Center
01:31AM 38.3119 -116.7422 263° West 413 475 36,000  Level Salt Lake Center
01:32AM 38.2983 -116.8856 263° West 411 473 36,000  Level Salt Lake Center
01:38AM 38.2100 -117.7530 263° West 412 474 36,000  Level FlightAware
01:38AM 38.2000 -117.8480 262° West 413 475 36,000  Level FlightAware
01:39AM 38.1850 -117.9880 262° West 415 478 36,000  Level FlightAware
01:40AM 38.1690 -118.1350 262° West 418 481 36,000  Level FlightAware
01:41AM 38.1550 -118.2600 262° West 418 481 36,000  Level FlightAware
01:42AM 38.1470 -118.3370 262° West 418 481 36,000  Level FlightAware
01:43AM 38.1330 -118.4610 262° West 418 481 36,000  Level FlightAware
01:43AM 38.1250 -118.5310 262° West 418 481 36,000  Level FlightAware
01:44AM 38.1170 -118.6080 263° West 418 481 36,000  Level FlightAware
01:45AM 38.0960 -118.7860 262° West 417 480 36,000  Level FlightAware
01:45AM 38.0830 -118.9030 262° West 416 479 36,000  Level FlightAware
01:46AM 38.0730 -118.9850 261° West 417 480 36,000  Level FlightAware
01:47AM 38.0620 -119.0820 262° West 416 479 36,000  Level FlightAware
01:47AM 38.0500 -119.1810 261° West 415 478 36,000  Level FlightAware
01:48AM 38.0380 -119.2840 262° West 416 479 36,000  Level FlightAware
01:49AM 38.0260 -119.3890 262° West 416 479 36,000  Level FlightAware
01:50AM 38.0130 -119.4970 261° West 417 480 36,000  Level FlightAware
01:50AM 38.0020 -119.5860 261° West 416 479 36,000  Level FlightAware
01:51AM 37.9900 -119.6790 261° West 415 478 36,000  Level FlightAware
01:52AM 37.9790 -119.7700 261° West 415 478 36,000  Level FlightAware
01:52AM 37.9660 -119.8750 261° West 416 479 36,000 -660 Level FlightAware
01:53AM 37.9540 -119.9730 261° West 413 475 35,100 -1,740 Descending FlightAware
01:53AM 37.9440 -120.0570 261° West 414 476 33,800 -2,340 Descending FlightAware
01:54AM 37.9300 -120.1610 260° West 413 475 32,100 -2,220 Descending FlightAware
01:55AM 37.9190 -120.2520 261° West 410 472 30,700 -2,160 Descending FlightAware
01:56AM 37.9050 -120.3570 260° West 405 466 29,100 -2,280 Descending FlightAware
01:56AM 37.8930 -120.4530 261° West 403 464 27,500 -2,340 Descending FlightAware
01:57AM 37.8790 -120.5560 260° West 401 461 25,800 -2,340 Descending FlightAware
01:58AM 37.8670 -120.6480 261° West 400 460 24,300 -2,460 Descending FlightAware
01:58AM 37.8620 -120.7180 265° West 402 463 23,000 -2,640 Descending FlightAware
01:59AM 37.8550 -120.8250 265° West 403 464 21,000 -2,400 Descending FlightAware
02:00AM 37.8480 -120.9400 266° West 404 465 18,700 -2,820 Descending FlightAware
02:01AM 37.8411 -121.0490 265° West 405 466 16,600 -3,360 Descending FlightAware ADS-B
02:01AM 37.8365 -121.1210 265° West 401 461 15,300 -2,460 Descending FlightAware ADS-B
02:01AM 37.8343 -121.1540 265° West 397 457 14,800 -1,920 Descending FlightAware ADS-B
02:01AM 37.8320 -121.1700 260° West 394 453 14,600 -2,100 Descending FlightAware ADS-B
02:02AM 37.8121 -121.2340 249° West 383 441 13,500 -2,100 Descending FlightAware ADS-B
02:02AM 37.7900 -121.2940 245° Southwest 375 432 12,500 -2,040 Descending FlightAware ADS-B
02:03AM 37.7689 -121.3530 246° West 364 419 11,500 -1,800 Descending FlightAware ADS-B
02:03AM 37.7477 -121.4130 246° West 350 403 10,700 -1,080 Descending FlightAware ADS-B
02:04AM 37.7244 -121.4780 246° West 320 368 10,300 -660 Descending FlightAware ADS-B
02:05AM 37.7070 -121.5270 246° West 299 344 10,000 -840 Descending FlightAware ADS-B
02:05AM 37.6910 -121.5720 246° West 289 333 9,500 -1,200 Descending FlightAware
02:05AM 37.6760 -121.6150 246° West 282 325 8,900 -1,140 Descending FlightAware
02:06AM 37.6740 -121.6320 262° West 282 325 8,800 -540 Descending FlightAware
02:06AM 37.6800 -121.6660 283° West 270 311 8,600 -540 Descending FlightAware
02:06AM 37.6840 -121.6830 287° West 264 304 8,500 -720 Descending FlightAware
02:06AM 37.6899 -121.7080 287° West 255 293 8,300 -600 Descending FlightAware ADS-B
02:07AM 37.6954 -121.7300 288° West 247 284 8,200 -600 Descending FlightAware ADS-B
02:07AM 37.7010 -121.7510 289° West 240 276 8,000 -900 Descending FlightAware ADS-B
02:07AM 37.7028 -121.7590 286° West 238 274 7,900 -1,200 Descending FlightAware ADS-B
02:07AM 37.7035 -121.7640 280° West 235 270 7,800 -780 Descending FlightAware ADS-B
02:07AM 37.7037 -121.7690 273° West 233 268 7,800 -900 Level FlightAware ADS-B
02:07AM 37.7035 -121.7730 266° West 232 267 7,700 -1,740 Descending FlightAware ADS-B
02:07AM 37.7028 -121.7780 260° West 229 264 7,600 -1,140 Descending FlightAware ADS-B
02:07AM 37.6996 -121.7880 248° West 225 259 7,500 -1,200 Descending FlightAware ADS-B
02:08AM 37.6947 -121.7950 229° Southwest 221 254 7,300 -1,320 Descending FlightAware ADS-B
02:08AM 37.6898 -121.8000 219° Southwest 217 250 7,200 -720 Descending FlightAware ADS-B
02:08AM 37.6869 -121.8010 195° South 216 249 7,200 -720 Level FlightAware ADS-B
02:08AM 37.6820 -121.8040 206° Southwest 215 247 7,100 -1,080 Descending FlightAware ADS-B
02:08AM 37.6715 -121.8080 197° South 213 245 6,900 -1,200 Descending FlightAware ADS-B
02:08AM 37.6568 -121.8120 192° South 213 245 6,600 -1,020 Descending FlightAware ADS-B
02:09AM 37.6428 -121.8170 196° South 212 244 6,400 -1,020 Descending FlightAware ADS-B
02:09AM 37.6283 -121.8220 195° South 210 242 6,100 -900 Descending FlightAware ADS-B
02:09AM 37.6162 -121.8260 195° South 210 242 6,000 -600 Descending FlightAware ADS-B
02:09AM 37.6076 -121.8290 195° South 211 243 5,900 -480 Descending FlightAware ADS-B
02:09AM 37.6042 -121.8310 205° Southwest 213 245 5,900  Level FlightAware ADS-B
02:09AM 37.6015 -121.8330 210° Southwest 214 246 5,900  Level FlightAware ADS-B
02:09AM 37.5984 -121.8370 226° Southwest 214 246 5,900 -600 Level FlightAware ADS-B
02:09AM 37.5950 -121.8410 223° Southwest 214 246 5,800 -600 Descending FlightAware ADS-B
02:10AM 37.5926 -121.8470 243° Southwest 216 249 5,800 -900 Level FlightAware ADS-B
02:10AM 37.5914 -121.8500 243° Southwest 217 250 5,700 -1,200 Descending FlightAware ADS-B
02:10AM 37.5894 -121.8590 254° West 220 253 5,600 -1,080 Descending FlightAware ADS-B
02:10AM 37.5866 -121.8780 259° West 224 258 5,300 -1,200 Descending FlightAware ADS-B
02:10AM 37.5840 -121.8980 261° West 223 257 5,000 -1,200 Descending FlightAware ADS-B
02:10AM 37.5814 -121.9180 261° West 220 253 4,700 -900 Descending FlightAware ADS-B
02:11AM 37.5808 -121.9230 261° West 218 251 4,700  Level FlightAware ADS-B
02:11AM 37.5804 -121.9290 265° West 217 250 4,700 -420 Level FlightAware ADS-B
02:11AM 37.5801 -121.9430 268° West 212 244 4,600 -480 Descending FlightAware ADS-B
02:11AM 37.5803 -121.9620 271° West 201 231 4,500 -600 Descending FlightAware ADS-B
02:11AM 37.5807 -121.9670 276° West 199 229 4,400 -1,380 Descending FlightAware ADS-B
02:11AM 37.5813 -121.9720 279° West 200 230 4,300 -1,140 Descending FlightAware ADS-B
02:11AM 37.5837 -121.9850 283° West 203 234 4,100 -1,200 Descending FlightAware ADS-B
02:12AM 37.5874 -122.0020 285° West 203 234 3,800 -1,080 Descending FlightAware ADS-B
02:12AM 37.5917 -122.0240 284° West 201 231 3,500 -720 Descending FlightAware ADS-B
02:12AM 37.5946 -122.0390 284° West 181 208 3,400 -600 Descending FlightAware ADS-B
02:12AM 37.5959 -122.0450 285° West 177 204 3,300 -600 Descending FlightAware ADS-B
02:12AM 37.5976 -122.0500 293° West 175 201 3,300 -600 Level FlightAware ADS-B
02:12AM 37.5992 -122.0550 292° West 175 201 3,200 -840 Descending FlightAware ADS-B
02:13AM 37.6030 -122.0640 298° West 178 205 3,100 -840 Descending FlightAware ADS-B
02:13AM 37.6077 -122.0750 298° West 178 205 2,900 -840 Descending FlightAware ADS-B
02:13AM 37.6170 -122.0880 312° West 175 201 2,700 -960 Descending FlightAware ADS-B
02:13AM 37.6221 -122.0950 313° West 177 204 2,500 -1,200 Descending FlightAware ADS-B
02:13AM 37.6255 -122.0990 317° Northwest 176 203 2,400 -1,020 Descending FlightAware ADS-B
02:14AM 37.6317 -122.1090 308° West 174 200 2,200 -900 Descending FlightAware ADS-B
02:14AM 37.6363 -122.1160 310° West 172 198 2,100 -900 Descending FlightAware ADS-B
02:14AM 37.6421 -122.1250 309° West 171 197 1,900 -1,020 Descending FlightAware ADS-B
02:14AM 37.6450 -122.1300 306° West 170 196 1,800 -1,200 Descending FlightAware ADS-B
02:14AM 37.6496 -122.1360 314° West 167 192 1,600 -1,380 Descending FlightAware ADS-B
02:14AM 37.6584 -122.1500 308° West 161 185 1,200 -1,080 Descending FlightAware ADS-B
02:15AM 37.6630 -122.1570 310° West 147 169 1,100 -600 Descending FlightAware ADS-B
02:15AM 37.6677 -122.1640 310° West 142 163 1,000 -720 Descending FlightAware ADS-B
02:15AM 37.6736 -122.1720 313° West 132 152 800 -900 Descending FlightAware ADS-B
02:15AM 37.6756 -122.1750 310° West 131 151 700 -900 Descending FlightAware ADS-B
02:15AM 37.6816 -122.1850 307° West 130 150 500 -720 Descending FlightAware ADS-B
02:16AM 37.6852 -122.1900 312° West 125 144 400 -360 Descending FlightAware ADS-B
02:16AM 37.6879 -122.1940 310° West 126 145 400 -360 Level FlightAware ADS-B
02:16AM 37.6920 -122.2000 311° West 126 145 300 -600 Descending FlightAware ADS-B
02:16AM 37.6998 -122.2120 309° West 125 144 100 -600 Descending FlightAware ADS-B